createdAt,value
2022-08-18T00:00:25.597Z,20.40
2022-08-18T00:01:10.434Z,20.40
2022-08-18T00:02:05.189Z,20.50
2022-08-18T00:03:00.607Z,20.70
2022-08-18T00:03:57.049Z,20.40
2022-08-18T00:04:48.546Z,20.50
2022-08-18T00:05:30.622Z,20.50
2022-08-18T00:06:13.142Z,20.40
2022-08-18T00:06:54.888Z,20.40
2022-08-18T00:07:37.173Z,20.60
2022-08-18T00:08:19.123Z,20.40
2022-08-18T00:09:03.258Z,20.40
2022-08-18T00:09:45.094Z,20.30
2022-08-18T00:10:27.533Z,20.60
2022-08-18T00:11:09.617Z,20.50
2022-08-18T00:11:51.424Z,20.40
2022-08-18T00:12:39.981Z,20.50
2022-08-18T00:13:21.922Z,20.40
2022-08-18T00:14:03.771Z,20.70
2022-08-18T00:14:46.787Z,20.30
2022-08-18T00:15:28.677Z,20.60
2022-08-18T00:16:10.383Z,20.40
2022-08-18T00:16:53.743Z,20.60
2022-08-18T00:17:36.628Z,20.60
2022-08-18T00:18:18.334Z,20.70
2022-08-18T00:19:00.251Z,20.30
2022-08-18T00:19:46.593Z,20.20
2022-08-18T00:20:29.640Z,20.30
2022-08-18T00:21:11.509Z,20.40
2022-08-18T00:21:53.233Z,20.40
2022-08-18T00:22:35.242Z,20.20
2022-08-18T00:23:17.218Z,20.50
2022-08-18T00:23:58.889Z,20.40
2022-08-18T00:24:47.658Z,20.10
2022-08-18T00:25:30.707Z,20.20
2022-08-18T00:26:12.439Z,20.10
2022-08-18T00:26:54.643Z,20.20
2022-08-18T00:27:38.270Z,20.30
2022-08-18T00:28:20.035Z,20.20
2022-08-18T00:29:05.722Z,20.40
2022-08-18T00:29:48.079Z,20.40
2022-08-18T00:30:29.789Z,20.20
2022-08-18T00:31:11.519Z,20.30
2022-08-18T00:31:53.416Z,20.40
2022-08-18T00:32:41.487Z,20.30
2022-08-18T00:33:23.243Z,20.20
2022-08-18T00:34:06.451Z,20.20
2022-08-18T00:34:48.268Z,20.40
2022-08-18T00:35:33.689Z,20.40
2022-08-18T00:36:15.374Z,20.20
2022-08-18T00:36:57.093Z,20.20
2022-08-18T00:37:40.942Z,20.20
2022-08-18T00:38:24.225Z,20.10
2022-08-18T00:39:07.329Z,20.30
2022-08-18T00:39:52.481Z,20.20
2022-08-18T00:40:41.735Z,20.10
2022-08-18T00:41:26.355Z,20.10
2022-08-18T00:42:28.942Z,20.40
2022-08-18T00:43:21.408Z,20.30
2022-08-18T00:44:04.563Z,20.40
2022-08-18T00:44:46.405Z,20.10
2022-08-18T00:45:36.110Z,20.10
2022-08-18T00:46:24.690Z,20.30
2022-08-18T00:47:06.846Z,20.10
2022-08-18T00:47:48.731Z,20.10
2022-08-18T00:48:30.430Z,20.10
2022-08-18T00:49:12.142Z,20.20
2022-08-18T00:49:53.919Z,20.10
2022-08-18T00:50:48.939Z,20.20
2022-08-18T00:51:41.154Z,20.20
2022-08-18T00:52:24.629Z,20.20
2022-08-18T00:53:35.453Z,20.30
2022-08-18T00:54:23.231Z,20.00
2022-08-18T00:55:05.175Z,20.20
2022-08-18T00:55:53.654Z,20.30
2022-08-18T00:56:42.473Z,20.10
2022-08-18T00:57:25.916Z,20.10
2022-08-18T00:58:15.842Z,20.30
2022-08-18T00:59:05.620Z,20.10
2022-08-18T00:59:57.539Z,20.30
2022-08-18T01:00:39.352Z,20.10
2022-08-18T01:01:23.785Z,20.30
2022-08-18T01:02:10.401Z,20.20
2022-08-18T01:02:56.521Z,20.00
2022-08-18T01:03:40.104Z,20.20
2022-08-18T01:04:30.027Z,20.10
2022-08-18T01:05:22.532Z,20.00
2022-08-18T01:06:14.564Z,20.00
2022-08-18T01:07:05.188Z,19.90
2022-08-18T01:07:49.740Z,19.80
2022-08-18T01:08:32.226Z,19.80
2022-08-18T01:09:14.086Z,20.10
2022-08-18T01:10:43.013Z,19.90
2022-08-18T01:11:25.159Z,19.90
2022-08-18T01:12:43.979Z,19.80
2022-08-18T01:13:10.600Z,19.90
2022-08-18T01:13:53.910Z,19.80
2022-08-18T01:14:37.185Z,19.90
2022-08-18T01:15:29.132Z,19.90
2022-08-18T01:16:29.963Z,19.90
2022-08-18T01:17:31.509Z,19.80
2022-08-18T01:18:33.563Z,19.80
2022-08-18T01:20:56.377Z,19.90
2022-08-18T01:21:53.362Z,19.70
2022-08-18T01:22:47.706Z,19.70
2022-08-18T01:23:30.745Z,19.90
2022-08-18T01:24:14.167Z,19.90
2022-08-18T01:25:18.571Z,19.80
2022-08-18T01:26:00.362Z,19.80
2022-08-18T01:26:49.998Z,19.80
2022-08-18T01:27:32.337Z,19.70
2022-08-18T01:28:18.383Z,19.80
2022-08-18T01:29:11.832Z,19.80
2022-08-18T01:30:12.381Z,19.70
2022-08-18T01:30:58.117Z,19.80
2022-08-18T01:31:54.590Z,19.70
2022-08-18T01:32:38.745Z,19.70
2022-08-18T01:33:20.421Z,19.80
2022-08-18T01:34:11.075Z,19.50
2022-08-18T01:34:52.850Z,19.80
2022-08-18T01:35:41.582Z,19.90
2022-08-18T01:36:23.859Z,19.70
2022-08-18T01:37:10.045Z,19.70
2022-08-18T01:38:34.683Z,19.90
2022-08-18T01:40:59.891Z,19.70
2022-08-18T01:41:17.269Z,19.90
2022-08-18T01:41:30.384Z,19.90
2022-08-18T01:42:17.268Z,19.80
2022-08-18T01:42:59.238Z,19.70
2022-08-18T01:43:40.946Z,19.80
2022-08-18T01:44:22.770Z,19.80
2022-08-18T01:45:07.856Z,20.00
2022-08-18T01:45:49.558Z,19.80
2022-08-18T01:46:34.195Z,19.80
2022-08-18T01:47:18.204Z,19.70
2022-08-18T01:48:00.378Z,19.80
2022-08-18T01:48:43.136Z,19.50
2022-08-18T01:49:24.996Z,19.70
2022-08-18T01:50:08.254Z,19.80
2022-08-18T01:50:55.355Z,19.70
2022-08-18T01:51:41.279Z,19.80
2022-08-18T01:52:23.021Z,19.80
2022-08-18T01:53:05.848Z,19.70
2022-08-18T01:53:48.609Z,19.80
2022-08-18T01:54:30.412Z,19.60
2022-08-18T01:55:14.520Z,19.90
2022-08-18T01:55:56.732Z,19.60
2022-08-18T01:56:38.713Z,19.80
2022-08-18T01:57:21.487Z,19.60
2022-08-18T01:58:03.755Z,19.70
2022-08-18T01:58:47.738Z,19.70
2022-08-18T01:59:29.622Z,19.70
2022-08-18T02:00:14.222Z,19.70
2022-08-18T02:00:58.079Z,19.80
2022-08-18T02:01:48.188Z,19.50
2022-08-18T02:02:33.825Z,19.60
2022-08-18T02:03:15.599Z,19.70
2022-08-18T02:04:23.277Z,19.50
2022-08-18T02:05:10.253Z,19.50
2022-08-18T02:05:53.256Z,19.50
2022-08-18T02:06:34.980Z,19.60
2022-08-18T02:07:16.689Z,19.60
2022-08-18T02:07:59.884Z,19.50
2022-08-18T02:08:43.624Z,19.40
2022-08-18T02:09:29.290Z,19.60
2022-08-18T02:10:16.371Z,19.50
2022-08-18T02:10:58.733Z,19.60
2022-08-18T02:11:40.414Z,19.70
2022-08-18T02:12:22.187Z,19.50
2022-08-18T02:13:04.091Z,19.60
2022-08-18T02:13:45.908Z,19.60
2022-08-18T02:14:27.752Z,19.60
2022-08-18T02:15:13.152Z,19.60
2022-08-18T02:15:54.931Z,19.60
2022-08-18T02:16:36.615Z,19.70
2022-08-18T02:17:18.609Z,19.50
2022-08-18T02:18:00.989Z,19.60
2022-08-18T02:18:48.298Z,19.70
2022-08-18T02:19:38.941Z,19.70
2022-08-18T02:20:20.813Z,19.60
2022-08-18T02:21:14.623Z,19.50
2022-08-18T02:22:01.307Z,19.50
2022-08-18T02:22:44.571Z,19.60
2022-08-18T02:23:26.277Z,19.60
2022-08-18T02:24:07.972Z,19.50
2022-08-18T02:24:50.198Z,19.70
2022-08-18T02:25:32.253Z,19.70
2022-08-18T02:26:16.918Z,19.70
2022-08-18T02:26:59.075Z,19.70
2022-08-18T02:27:40.894Z,19.60
2022-08-18T02:29:10.574Z,19.60
2022-08-18T02:29:52.393Z,19.70
2022-08-18T02:30:37.432Z,19.30
2022-08-18T02:31:22.972Z,19.50
2022-08-18T02:32:05.823Z,19.40
2022-08-18T02:32:48.368Z,19.60
2022-08-18T02:33:30.058Z,19.60
2022-08-18T02:34:11.752Z,19.50
2022-08-18T02:34:53.479Z,19.40
2022-08-18T02:35:35.913Z,19.50
2022-08-18T02:36:18.707Z,19.30
2022-08-18T02:37:01.199Z,19.40
2022-08-18T02:37:47.827Z,19.70
2022-08-18T02:38:30.438Z,19.40
2022-08-18T02:39:15.358Z,19.40
2022-08-18T02:39:57.521Z,19.40
2022-08-18T02:40:39.364Z,19.40
2022-08-18T02:41:21.782Z,19.10
2022-08-18T02:42:05.910Z,19.30
2022-08-18T02:42:48.436Z,19.30
2022-08-18T02:43:33.787Z,19.50
2022-08-18T02:44:18.017Z,19.40
2022-08-18T02:44:59.942Z,19.30
2022-08-18T02:45:41.655Z,19.30
2022-08-18T02:46:23.673Z,19.30
2022-08-18T02:47:11.491Z,19.50
2022-08-18T02:47:54.966Z,19.40
2022-08-18T02:48:36.737Z,19.40
2022-08-18T02:49:19.343Z,19.30
2022-08-18T02:50:01.053Z,19.40
2022-08-18T02:50:48.502Z,19.40
2022-08-18T02:51:30.539Z,19.30
2022-08-18T02:52:12.327Z,19.40
2022-08-18T02:52:54.623Z,19.40
2022-08-18T02:53:37.652Z,19.20
2022-08-18T02:54:23.042Z,19.40
2022-08-18T02:55:06.039Z,19.40
2022-08-18T02:55:48.855Z,19.20
2022-08-18T02:56:33.733Z,19.30
2022-08-18T02:57:23.445Z,19.40
2022-08-18T02:58:05.198Z,19.20
2022-08-18T02:58:46.991Z,19.40
2022-08-18T02:59:31.956Z,19.30
2022-08-18T03:00:18.843Z,19.30
2022-08-18T03:01:00.801Z,19.30
2022-08-18T03:01:46.918Z,19.20
2022-08-18T03:02:28.703Z,19.30
2022-08-18T03:03:10.403Z,19.30
2022-08-18T03:03:53.239Z,19.30
2022-08-18T03:04:36.133Z,19.20
2022-08-18T03:05:18.810Z,19.30
2022-08-18T03:06:00.521Z,19.30
2022-08-18T03:06:43.240Z,19.30
2022-08-18T03:07:25.936Z,19.10
2022-08-18T03:08:11.495Z,19.20
2022-08-18T03:08:54.371Z,19.30
2022-08-18T03:09:36.686Z,19.20
2022-08-18T03:10:33.285Z,19.20
2022-08-18T03:11:17.316Z,19.40
2022-08-18T03:11:59.457Z,19.10
2022-08-18T03:12:44.236Z,19.20
2022-08-18T03:13:26.088Z,19.10
2022-08-18T03:14:08.725Z,19.50
2022-08-18T03:14:53.323Z,19.00
2022-08-18T03:15:35.051Z,19.20
2022-08-18T03:16:17.959Z,19.30
2022-08-18T03:17:00.510Z,19.10
2022-08-18T03:17:42.330Z,19.10
2022-08-18T03:18:24.253Z,19.20
2022-08-18T03:19:06.117Z,19.10
2022-08-18T03:19:48.026Z,19.30
2022-08-18T03:20:31.118Z,19.30
2022-08-18T03:21:16.178Z,18.30
2022-08-18T03:22:02.809Z,19.20
2022-08-18T03:22:44.851Z,19.10
2022-08-18T03:23:30.369Z,19.30
2022-08-18T03:24:15.814Z,19.00
2022-08-18T03:24:59.890Z,19.10
2022-08-18T03:25:47.383Z,18.90
2022-08-18T03:26:30.643Z,18.90
2022-08-18T03:27:12.938Z,18.90
2022-08-18T03:27:54.652Z,19.00
2022-08-18T03:28:36.402Z,19.00
2022-08-18T03:29:18.609Z,19.10
2022-08-18T03:30:00.659Z,19.00
2022-08-18T03:30:43.368Z,19.10
2022-08-18T03:31:27.958Z,19.30
2022-08-18T03:32:10.319Z,19.00
2022-08-18T03:32:52.198Z,18.90
2022-08-18T03:33:34.485Z,19.10
2022-08-18T03:34:21.466Z,19.00
2022-08-18T03:35:03.849Z,18.90
2022-08-18T03:35:45.546Z,18.90
2022-08-18T03:36:31.822Z,18.90
2022-08-18T03:37:15.917Z,19.10
2022-08-18T03:38:00.698Z,19.10
2022-08-18T03:38:43.926Z,19.00
2022-08-18T03:39:29.866Z,19.10
2022-08-18T03:40:12.295Z,18.90
2022-08-18T03:40:54.087Z,18.80
2022-08-18T03:41:43.892Z,19.00
2022-08-18T03:42:41.032Z,19.00
2022-08-18T03:43:23.726Z,18.80
2022-08-18T03:44:25.108Z,18.80
2022-08-18T03:45:14.297Z,19.00
2022-08-18T03:46:05.272Z,19.00
2022-08-18T03:46:47.154Z,18.90
2022-08-18T03:47:28.839Z,18.80
2022-08-18T03:48:10.986Z,19.00
2022-08-18T03:48:53.232Z,19.00
2022-08-18T03:49:35.494Z,18.90
2022-08-18T03:50:19.505Z,18.90
2022-08-18T03:51:13.581Z,18.90
2022-08-18T03:51:55.414Z,18.80
2022-08-18T03:52:38.342Z,18.90
2022-08-18T03:53:23.587Z,18.90
2022-08-18T03:54:06.324Z,18.80
2022-08-18T03:54:48.476Z,18.90
2022-08-18T03:55:30.611Z,19.00
2022-08-18T03:56:18.394Z,19.00
2022-08-18T03:57:00.815Z,18.90
2022-08-18T03:57:44.094Z,19.00
2022-08-18T03:58:26.234Z,18.80
2022-08-18T03:59:14.380Z,18.70
2022-08-18T03:59:56.425Z,18.70
2022-08-18T04:00:38.831Z,18.70
2022-08-18T04:01:27.133Z,19.00
2022-08-18T04:02:10.915Z,18.80
2022-08-18T04:02:52.801Z,18.80
2022-08-18T04:03:34.595Z,18.90
2022-08-18T04:04:20.654Z,18.90
2022-08-18T04:05:05.277Z,19.00
2022-08-18T04:05:47.650Z,18.90
2022-08-18T04:06:32.563Z,18.80
2022-08-18T04:07:17.448Z,18.70
2022-08-18T04:07:59.229Z,18.60
2022-08-18T04:08:41.026Z,18.70
2022-08-18T04:09:24.803Z,18.60
2022-08-18T04:10:07.276Z,18.50
2022-08-18T04:11:01.015Z,18.70
2022-08-18T04:11:44.411Z,18.70
2022-08-18T04:12:26.289Z,18.50
2022-08-18T04:13:07.988Z,18.70
2022-08-18T04:13:49.737Z,18.70
2022-08-18T04:14:32.487Z,18.80
2022-08-18T04:15:14.203Z,18.70
2022-08-18T04:15:59.411Z,18.60
2022-08-18T04:16:42.044Z,18.70
2022-08-18T04:17:25.043Z,18.50
2022-08-18T04:18:08.905Z,18.40
2022-08-18T04:18:50.843Z,18.50
2022-08-18T04:19:34.576Z,18.50
2022-08-18T04:20:16.446Z,18.60
2022-08-18T04:21:07.931Z,18.40
2022-08-18T04:21:52.402Z,18.60
2022-08-18T04:22:34.233Z,18.40
2022-08-18T04:23:17.424Z,18.40
2022-08-18T04:24:04.938Z,18.50
2022-08-18T04:24:47.080Z,18.50
2022-08-18T04:25:32.687Z,18.60
2022-08-18T04:26:19.077Z,18.50
2022-08-18T04:27:04.833Z,18.60
2022-08-18T04:27:46.692Z,18.60
2022-08-18T04:28:29.244Z,18.40
2022-08-18T04:29:12.207Z,18.50
2022-08-18T04:29:56.707Z,18.50
2022-08-18T04:30:39.417Z,18.60
2022-08-18T04:31:24.620Z,18.50
2022-08-18T04:32:06.794Z,18.60
2022-08-18T04:32:48.902Z,18.70
2022-08-18T04:33:30.582Z,18.60
2022-08-18T04:34:12.685Z,18.80
2022-08-18T04:34:54.734Z,18.60
2022-08-18T04:35:38.908Z,18.70
2022-08-18T04:36:20.979Z,18.80
2022-08-18T04:37:02.964Z,18.60
2022-08-18T04:37:45.316Z,18.70
2022-08-18T04:38:27.325Z,18.70
2022-08-18T04:39:11.749Z,18.70
2022-08-18T04:39:53.558Z,18.70
2022-08-18T04:40:36.330Z,18.60
2022-08-18T04:41:18.467Z,18.60
2022-08-18T04:42:01.543Z,18.80
2022-08-18T04:42:44.760Z,18.70
2022-08-18T04:43:26.474Z,18.60
2022-08-18T04:44:09.682Z,18.80
2022-08-18T04:44:51.608Z,18.80
2022-08-18T04:45:33.330Z,18.80
2022-08-18T04:46:15.024Z,18.70
2022-08-18T04:46:57.390Z,18.90
2022-08-18T04:47:41.623Z,18.70
2022-08-18T04:48:23.540Z,18.70
2022-08-18T04:49:05.859Z,18.60
2022-08-18T04:49:47.693Z,19.00
2022-08-18T04:50:29.426Z,18.90
2022-08-18T04:51:14.022Z,18.90
2022-08-18T04:52:40.876Z,18.70
2022-08-18T04:53:41.653Z,18.90
2022-08-18T04:54:24.855Z,18.60
2022-08-18T04:55:07.285Z,18.80
2022-08-18T04:55:54.219Z,18.70
2022-08-18T04:56:39.716Z,18.70
2022-08-18T04:57:22.511Z,18.80
2022-08-18T04:58:04.230Z,18.90
2022-08-18T04:58:51.067Z,18.90
2022-08-18T05:00:15.213Z,18.80
2022-08-18T05:00:59.707Z,18.60
2022-08-18T05:01:45.562Z,18.80
2022-08-18T05:02:27.462Z,18.90
2022-08-18T05:03:09.192Z,19.00
2022-08-18T05:03:52.313Z,18.90
2022-08-18T05:04:39.364Z,18.80
2022-08-18T05:05:21.048Z,19.00
2022-08-18T05:06:04.831Z,18.90
2022-08-18T05:06:47.183Z,18.90
2022-08-18T05:07:28.924Z,19.10
2022-08-18T05:08:10.643Z,19.00
2022-08-18T05:08:54.525Z,18.80
2022-08-18T05:09:41.339Z,18.80
2022-08-18T05:10:23.325Z,18.80
2022-08-18T05:11:05.786Z,18.90
2022-08-18T05:11:49.033Z,19.00
2022-08-18T05:12:30.788Z,18.90
2022-08-18T05:13:16.617Z,19.00
2022-08-18T05:13:58.387Z,19.00
2022-08-18T05:14:42.126Z,18.90
2022-08-18T05:15:23.922Z,18.90
2022-08-18T05:16:11.625Z,19.00
2022-08-18T05:17:39.791Z,19.00
2022-08-18T05:18:27.002Z,18.90
2022-08-18T05:19:14.823Z,19.00
2022-08-18T05:19:56.749Z,19.10
2022-08-18T05:20:43.269Z,19.10
2022-08-18T05:21:26.297Z,18.90
2022-08-18T05:22:08.568Z,18.90
2022-08-18T05:22:50.662Z,19.00
2022-08-18T05:23:32.431Z,19.10
2022-08-18T05:24:14.137Z,19.00
2022-08-18T05:24:55.861Z,19.00
2022-08-18T05:25:40.090Z,19.00
2022-08-18T05:26:21.797Z,19.00
2022-08-18T05:27:04.067Z,19.20
2022-08-18T05:27:45.838Z,19.00
2022-08-18T05:28:27.732Z,19.20
2022-08-18T05:29:19.082Z,19.10
2022-08-18T05:30:02.531Z,18.90
2022-08-18T05:30:44.323Z,19.10
2022-08-18T05:31:28.198Z,19.10
2022-08-18T05:32:10.357Z,19.10
2022-08-18T05:33:12.107Z,19.00
2022-08-18T05:33:57.681Z,19.00
2022-08-18T05:34:39.853Z,19.00
2022-08-18T05:35:26.740Z,19.20
2022-08-18T05:36:26.914Z,19.10
2022-08-18T05:37:47.748Z,19.10
2022-08-18T05:38:55.968Z,19.20
2022-08-18T05:39:46.742Z,19.30
2022-08-18T05:40:31.795Z,19.20
2022-08-18T05:41:21.274Z,19.10
2022-08-18T05:42:14.727Z,19.00
2022-08-18T05:42:59.277Z,19.10
2022-08-18T05:43:52.061Z,19.00
2022-08-18T05:44:41.497Z,19.00
2022-08-18T05:45:24.299Z,19.00
2022-08-18T05:46:08.187Z,19.20
2022-08-18T05:46:55.922Z,19.20
2022-08-18T05:47:37.656Z,19.10
2022-08-18T05:48:19.626Z,19.10
2022-08-18T05:49:01.368Z,19.10
2022-08-18T05:49:46.725Z,19.20
2022-08-18T05:50:32.218Z,19.00
2022-08-18T05:51:29.129Z,19.00
2022-08-18T05:52:36.228Z,19.00
2022-08-18T05:53:20.658Z,18.90
2022-08-18T05:54:23.163Z,19.10
2022-08-18T05:56:40.648Z,19.10
2022-08-18T05:57:24.055Z,18.90
2022-08-18T05:58:13.600Z,19.10
2022-08-18T05:58:57.329Z,19.00
2022-08-18T05:59:41.827Z,19.00
2022-08-18T06:00:24.648Z,19.00
2022-08-18T06:01:13.356Z,19.10
2022-08-18T06:02:17.929Z,19.10
2022-08-18T06:03:15.223Z,18.90
2022-08-18T06:04:29.575Z,19.00
2022-08-18T06:05:26.792Z,18.90
2022-08-18T06:06:14.346Z,19.10
2022-08-18T06:06:57.801Z,19.10
2022-08-18T06:07:59.890Z,19.20
2022-08-18T06:08:46.566Z,19.20
2022-08-18T06:09:47.876Z,19.10
2022-08-18T06:10:31.693Z,19.20
2022-08-18T06:11:22.502Z,19.20
2022-08-18T06:12:17.338Z,19.30
2022-08-18T06:13:01.272Z,19.30
2022-08-18T06:13:43.482Z,19.10
2022-08-18T06:14:25.384Z,19.20
2022-08-18T06:15:21.624Z,19.20
2022-08-18T06:16:19.197Z,19.30
2022-08-18T06:17:44.913Z,19.20
2022-08-18T06:18:54.186Z,19.20
2022-08-18T06:19:57.627Z,19.30
2022-08-18T06:20:56.094Z,19.40
2022-08-18T06:22:09.768Z,19.20
2022-08-18T06:23:05.685Z,19.30
2022-08-18T06:24:10.773Z,19.40
2022-08-18T06:25:11.312Z,19.30
2022-08-18T06:27:11.882Z,19.30
2022-08-18T06:27:56.540Z,19.30
2022-08-18T06:29:13.210Z,19.50
2022-08-18T06:30:08.420Z,19.30
2022-08-18T06:31:10.951Z,19.30
2022-08-18T06:32:23.007Z,19.50
2022-08-18T06:33:25.540Z,19.30
2022-08-18T06:34:21.853Z,19.40
2022-08-18T06:35:38.571Z,19.40
2022-08-18T06:36:40.880Z,19.40
2022-08-18T06:37:59.477Z,19.50
2022-08-18T06:39:23.382Z,19.50
2022-08-18T06:40:05.616Z,19.40
2022-08-18T06:40:48.821Z,19.20
2022-08-18T06:41:43.088Z,19.30
2022-08-18T06:42:31.266Z,19.50
2022-08-18T06:43:15.955Z,19.60
2022-08-18T06:44:08.366Z,19.50
2022-08-18T06:44:53.398Z,19.50
2022-08-18T06:45:39.811Z,19.70
2022-08-18T06:47:16.393Z,20.20
2022-08-18T06:48:31.690Z,19.50
2022-08-18T06:49:33.257Z,19.40
2022-08-18T06:50:44.990Z,19.60
2022-08-18T06:51:28.477Z,19.60
2022-08-18T06:52:29.217Z,19.40
2022-08-18T06:53:27.557Z,19.30
2022-08-18T06:54:21.761Z,19.30
2022-08-18T06:55:15.930Z,19.50
2022-08-18T06:55:57.746Z,19.40
2022-08-18T06:56:39.401Z,19.30
2022-08-18T06:57:34.505Z,19.30
2022-08-18T06:58:16.212Z,19.40
2022-08-18T06:59:14.214Z,19.30
2022-08-18T07:00:02.552Z,19.30
2022-08-18T07:00:58.137Z,19.60
2022-08-18T07:01:40.317Z,19.30
2022-08-18T07:02:37.695Z,19.40
2022-08-18T07:03:39.856Z,19.40
2022-08-18T07:04:38.734Z,19.30
2022-08-18T07:05:27.216Z,19.50
2022-08-18T07:06:31.425Z,19.70
2022-08-18T07:07:41.639Z,19.60
2022-08-18T07:08:32.139Z,19.50
2022-08-18T07:09:26.020Z,19.70
2022-08-18T07:10:39.212Z,19.60
2022-08-18T07:11:33.090Z,19.60
2022-08-18T07:12:22.154Z,19.40
2022-08-18T07:13:13.116Z,19.70
2022-08-18T07:14:16.603Z,19.50
2022-08-18T07:15:02.057Z,19.50
2022-08-18T07:15:45.593Z,19.70
2022-08-18T07:16:54.540Z,19.60
2022-08-18T07:17:53.027Z,19.50
2022-08-18T07:18:34.990Z,19.40
2022-08-18T07:19:22.907Z,19.60
2022-08-18T07:20:23.641Z,19.50
2022-08-18T07:21:05.635Z,19.50
2022-08-18T07:22:02.744Z,19.70
2022-08-18T07:22:54.899Z,19.40
2022-08-18T07:23:39.412Z,19.50
2022-08-18T07:24:31.795Z,19.60
2022-08-18T07:25:22.309Z,19.70
2022-08-18T07:26:16.871Z,19.60
2022-08-18T07:27:03.053Z,19.90
2022-08-18T07:27:52.889Z,19.60
2022-08-18T07:28:39.313Z,19.90
2022-08-18T07:29:22.935Z,19.80
2022-08-18T07:30:27.096Z,19.80
2022-08-18T07:31:19.602Z,19.70
2022-08-18T07:32:11.389Z,19.90
2022-08-18T07:33:05.546Z,20.00
2022-08-18T07:34:09.616Z,19.90
2022-08-18T07:34:55.157Z,19.80
2022-08-18T07:36:04.236Z,19.70
2022-08-18T07:37:28.434Z,19.90
2022-08-18T07:38:41.373Z,19.80
2022-08-18T07:39:47.420Z,20.10
2022-08-18T07:40:42.727Z,19.70
2022-08-18T07:41:40.946Z,19.70
2022-08-18T07:42:53.929Z,19.70
2022-08-18T07:43:52.583Z,19.90
2022-08-18T07:45:02.042Z,19.80
2022-08-18T07:45:46.189Z,20.00
2022-08-18T07:46:30.734Z,20.10
2022-08-18T07:47:20.059Z,20.00
2022-08-18T07:48:34.725Z,20.10
2022-08-18T07:49:22.458Z,20.00
2022-08-18T07:50:27.183Z,19.80
2022-08-18T07:51:37.275Z,20.10
2022-08-18T07:52:36.674Z,20.10
2022-08-18T07:53:38.458Z,19.80
2022-08-18T07:54:48.893Z,19.90
2022-08-18T07:55:35.539Z,20.20
2022-08-18T07:56:37.836Z,20.10
2022-08-18T07:58:44.575Z,20.00
2022-08-18T07:59:41.126Z,20.00
2022-08-18T08:02:23.064Z,20.30
2022-08-18T08:03:14.140Z,20.00
2022-08-18T08:04:04.454Z,20.40
2022-08-18T08:05:48.749Z,20.00
2022-08-18T08:07:23.899Z,20.10
2022-08-18T08:08:31.528Z,20.20
2022-08-18T08:09:31.846Z,20.40
2022-08-18T08:10:28.590Z,20.40
2022-08-18T08:11:27.396Z,20.50
2022-08-18T08:12:28.010Z,20.30
2022-08-18T08:13:43.851Z,20.70
2022-08-18T08:14:40.511Z,20.70
2022-08-18T08:15:35.696Z,20.60
2022-08-18T08:16:37.259Z,20.60
2022-08-18T08:17:46.197Z,20.70
2022-08-18T08:19:00.255Z,20.50
2022-08-18T08:20:01.327Z,20.60
2022-08-18T08:20:47.757Z,20.20
2022-08-18T08:21:33.421Z,20.30
2022-08-18T08:22:29.753Z,20.30
2022-08-18T08:23:40.047Z,20.40
2022-08-18T08:24:39.095Z,20.40
2022-08-18T08:25:47.613Z,20.30
2022-08-18T08:26:38.282Z,20.60
2022-08-18T08:27:32.676Z,20.50
2022-08-18T08:28:35.349Z,20.60
2022-08-18T08:29:28.208Z,20.30
2022-08-18T08:30:16.638Z,20.20
2022-08-18T08:31:33.217Z,20.80
2022-08-18T08:33:15.337Z,20.40
2022-08-18T08:36:11.132Z,20.30
2022-08-18T08:37:02.776Z,20.30
2022-08-18T08:38:39.132Z,20.60
2022-08-18T08:39:17.930Z,20.60
2022-08-18T08:42:32.127Z,20.50
2022-08-18T08:43:29.792Z,20.50
2022-08-18T08:44:21.477Z,20.60
2022-08-18T08:45:10.934Z,20.40
2022-08-18T08:46:15.700Z,20.30
2022-08-18T08:47:10.628Z,20.30
2022-08-18T08:48:09.349Z,20.30
2022-08-18T08:49:03.156Z,20.60
2022-08-18T08:50:00.314Z,20.40
2022-08-18T08:51:09.387Z,20.50
2022-08-18T08:52:01.431Z,20.20
2022-08-18T08:53:08.594Z,20.50
2022-08-18T08:53:59.279Z,20.40
2022-08-18T08:54:50.691Z,20.30
2022-08-18T08:55:41.787Z,20.70
2022-08-18T08:56:30.061Z,20.60
2022-08-18T08:57:14.585Z,20.40
2022-08-18T08:58:10.151Z,20.50
2022-08-18T08:58:57.129Z,20.50
2022-08-18T08:59:40.823Z,20.40
2022-08-18T09:00:22.743Z,20.60
2022-08-18T09:01:06.055Z,20.60
2022-08-18T09:01:56.491Z,20.50
2022-08-18T09:02:48.100Z,20.50
2022-08-18T09:03:57.837Z,20.30
2022-08-18T09:05:15.770Z,20.40
2022-08-18T09:06:02.694Z,20.40
2022-08-18T09:07:14.331Z,20.70
2022-08-18T09:08:17.371Z,20.40
2022-08-18T09:09:08.562Z,20.30
2022-08-18T09:10:26.195Z,20.60
2022-08-18T09:12:05.971Z,20.70
2022-08-18T09:13:12.048Z,20.50
2022-08-18T09:14:23.535Z,20.60
2022-08-18T09:15:35.617Z,20.80
2022-08-18T09:16:39.202Z,20.70
2022-08-18T09:18:03.747Z,20.90
2022-08-18T09:19:04.803Z,21.00
2022-08-18T09:20:23.999Z,21.00
2022-08-18T09:21:15.965Z,21.00
2022-08-18T09:22:00.709Z,20.90
2022-08-18T09:22:52.153Z,20.90
2022-08-18T09:23:46.562Z,20.70
2022-08-18T09:24:32.185Z,21.30
2022-08-18T09:25:32.845Z,20.80
2022-08-18T09:26:39.561Z,20.80
2022-08-18T09:28:09.422Z,21.00
2022-08-18T09:29:10.872Z,20.80
2022-08-18T09:29:59.435Z,20.80
2022-08-18T09:30:51.275Z,21.00
2022-08-18T09:31:33.942Z,20.80
2022-08-18T09:32:22.693Z,21.00
2022-08-18T09:33:49.135Z,21.00
2022-08-18T09:34:53.629Z,20.90
2022-08-18T09:35:54.590Z,20.90
2022-08-18T09:36:50.744Z,21.20
2022-08-18T09:38:20.494Z,21.10
2022-08-18T09:39:54.419Z,21.10
2022-08-18T09:41:04.758Z,21.00
2022-08-18T09:41:54.677Z,21.20
2022-08-18T09:43:12.168Z,21.00
2022-08-18T09:44:09.924Z,21.00
2022-08-18T09:45:05.691Z,21.10
2022-08-18T09:46:00.176Z,21.20
2022-08-18T09:47:57.168Z,21.10
2022-08-18T09:49:53.549Z,21.30
2022-08-18T09:50:50.853Z,21.20
2022-08-18T09:51:40.007Z,21.30
2022-08-18T09:52:24.371Z,21.20
2022-08-18T09:53:37.918Z,21.60
2022-08-18T09:54:25.105Z,21.30
2022-08-18T09:55:17.975Z,21.60
2022-08-18T09:56:05.156Z,21.30
2022-08-18T09:56:54.382Z,21.50
2022-08-18T09:57:43.816Z,21.40
2022-08-18T09:58:26.187Z,21.50
2022-08-18T09:59:10.870Z,21.40
2022-08-18T10:00:07.403Z,21.50
2022-08-18T10:01:28.595Z,21.70
2022-08-18T10:02:32.968Z,21.70
2022-08-18T10:03:25.655Z,21.40
2022-08-18T10:04:14.132Z,21.70
2022-08-18T10:05:17.739Z,21.50
2022-08-18T10:06:12.900Z,21.50
2022-08-18T10:06:55.053Z,21.80
2022-08-18T10:07:48.845Z,21.70
2022-08-18T10:08:52.648Z,21.90
2022-08-18T10:09:45.024Z,21.80
2022-08-18T10:11:02.274Z,21.80
2022-08-18T10:12:19.384Z,21.80
2022-08-18T10:13:01.870Z,21.90
2022-08-18T10:13:57.067Z,21.80
2022-08-18T10:15:03.476Z,22.10
2022-08-18T10:15:57.995Z,22.00
2022-08-18T10:17:21.443Z,22.40
2022-08-18T10:18:35.252Z,22.20
2022-08-18T10:19:49.755Z,22.30
2022-08-18T10:21:11.361Z,22.50
2022-08-18T10:22:00.006Z,22.50
2022-08-18T10:22:48.853Z,22.70
2022-08-18T10:24:02.910Z,22.60
2022-08-18T10:25:09.211Z,22.50
2022-08-18T10:27:45.660Z,22.50
2022-08-18T10:28:52.271Z,22.40
2022-08-18T10:29:46.920Z,22.60
2022-08-18T10:30:36.381Z,22.80
2022-08-18T10:32:02.947Z,22.80
2022-08-18T10:32:52.218Z,22.90
2022-08-18T10:34:16.629Z,23.00
2022-08-18T10:35:00.288Z,22.90
2022-08-18T10:35:41.988Z,23.00
2022-08-18T10:36:45.469Z,22.90
2022-08-18T10:37:38.137Z,23.10
2022-08-18T10:38:39.221Z,23.10
2022-08-18T10:39:50.303Z,23.30
2022-08-18T10:40:33.382Z,22.90
2022-08-18T10:41:27.250Z,23.00
2022-08-18T10:42:31.141Z,23.30
2022-08-18T10:43:55.333Z,23.30
2022-08-18T10:44:43.679Z,23.20
2022-08-18T10:45:30.634Z,23.20
2022-08-18T10:46:25.049Z,23.30
2022-08-18T10:47:12.301Z,23.30
2022-08-18T10:48:11.896Z,23.20
2022-08-18T10:49:23.035Z,23.40
2022-08-18T10:50:18.184Z,23.40
2022-08-18T10:51:29.675Z,23.50
2022-08-18T10:53:16.976Z,23.50
2022-08-18T10:54:12.844Z,23.30
2022-08-18T10:55:03.418Z,23.20
2022-08-18T10:55:56.975Z,23.10
2022-08-18T10:57:12.229Z,22.90
2022-08-18T10:58:19.818Z,22.70
2022-08-18T11:00:43.791Z,22.90
2022-08-18T11:01:35.584Z,22.70
2022-08-18T11:02:29.183Z,23.00
2022-08-18T11:03:52.096Z,22.90
2022-08-18T11:04:38.768Z,22.70
2022-08-18T11:05:25.832Z,22.70
2022-08-18T11:06:18.181Z,22.70
2022-08-18T11:07:12.959Z,22.70
2022-08-18T11:08:00.742Z,22.70
2022-08-18T11:08:57.489Z,22.80
2022-08-18T11:09:42.095Z,22.80
2022-08-18T11:12:01.224Z,22.60